Time;durP1;ratioP1;P1;durP2;ratioP2;P2;SDS_P1;SDS_P2;PMS_P1;PMS_P2;Temp;Humidity;BMP_temperature;BMP_pressure;BME280_temperature;BME280_humidity;BME280_pressure;Samples;Min_cycle;Max_cycle;Signal;HPM_P1;HPM_P2
2020/12/09 00:01:56;;;;;;;82.50;24.80;;;6.70;90.20;;;;;;5015417;28;20037;-55
2020/12/09 00:04:21;;;;;;;78.38;26.17;;;6.70;90.10;;;;;;5013334;28;20050;-56
2020/12/09 00:06:48;;;;;;;73.40;25.45;;;6.60;90.10;;;;;;5024026;28;20029;-56
2020/12/09 00:09:14;;;;;;;74.43;25.23;;;6.60;90.10;;;;;;5008074;28;20311;-56
2020/12/09 00:11:40;;;;;;;78.65;25.85;;;6.60;90.10;;;;;;4978433;28;20241;-56
2020/12/09 00:14:06;;;;;;;65.43;25.05;;;6.60;90.10;;;;;;5009515;28;20034;-56
2020/12/09 00:16:32;;;;;;;90.55;26.33;;;6.60;90.10;;;;;;5012067;28;20104;-56
2020/12/09 00:18:57;;;;;;;61.17;24.60;;;6.60;90.10;;;;;;5009451;28;20038;-56
2020/12/09 00:21:24;;;;;;;67.88;27.13;;;6.60;90.10;;;;;;4993581;28;20040;-55
2020/12/09 00:23:53;;;;;;;74.97;25.27;;;6.60;90.20;;;;;;4999299;28;20038;-57
2020/12/09 00:26:19;;;;;;;65.45;24.52;;;6.50;90.20;;;;;;5007056;28;20061;-56
2020/12/09 00:28:45;;;;;;;63.17;24.90;;;6.60;90.20;;;;;;5008517;28;20030;-56
2020/12/09 00:31:13;;;;;;;67.65;24.25;;;6.60;90.20;;;;;;5009289;28;20030;-55
2020/12/09 00:33:38;;;;;;;69.57;24.20;;;6.60;90.20;;;;;;5007433;28;20113;-55
2020/12/09 00:36:04;;;;;;;70.55;25.50;;;6.50;90.20;;;;;;5009445;28;20040;-56
2020/12/09 00:38:29;;;;;;;72.07;26.08;;;6.50;90.20;;;;;;5006314;28;20117;-55
2020/12/09 00:40:55;;;;;;;61.95;24.20;;;6.50;90.20;;;;;;5008702;28;20393;-57
2020/12/09 00:43:20;;;;;;;73.10;24.08;;;6.50;90.20;;;;;;5007764;28;20026;-56
2020/12/09 00:45:46;;;;;;;68.50;24.08;;;6.50;90.30;;;;;;5009391;28;20038;-55
2020/12/09 00:48:11;;;;;;;60.55;23.25;;;6.50;90.30;;;;;;5004212;28;20026;-56
2020/12/09 00:50:37;;;;;;;59.47;24.08;;;6.50;90.30;;;;;;5001647;28;20042;-56
2020/12/09 00:53:02;;;;;;;64.95;23.27;;;6.50;90.30;;;;;;5009424;28;20049;-57
2020/12/09 00:55:28;;;;;;;60.55;23.20;;;6.40;90.30;;;;;;5008958;28;20490;-56
2020/12/09 00:57:53;;;;;;;59.85;23.83;;;6.40;90.30;;;;;;5007581;28;20032;-56
2020/12/09 01:00:19;;;;;;;54.45;22.45;;;6.40;90.30;;;;;;5022517;28;20115;-56
2020/12/09 01:02:44;;;;;;;64.25;22.95;;;6.40;90.30;;;;;;5005571;28;20497;-55
2020/12/09 01:05:11;;;;;;;66.30;24.33;;;6.40;90.40;;;;;;5021656;28;20033;-56
2020/12/09 01:07:37;;;;;;;62.88;22.83;;;6.40;90.40;;;;;;4999473;28;20036;-56
2020/12/09 01:10:04;;;;;;;61.85;23.85;;;6.40;90.40;;;;;;5009755;28;20030;-55
2020/12/09 01:12:29;;;;;;;57.83;23.98;;;6.40;90.40;;;;;;5008627;28;20037;-55
2020/12/09 01:14:55;;;;;;;61.70;23.83;;;6.40;90.40;;;;;;5008075;28;20474;-56
2020/12/09 01:17:20;;;;;;;60.13;25.35;;;6.40;90.50;;;;;;4972086;28;20046;-55
2020/12/09 01:19:46;;;;;;;63.78;24.70;;;6.40;90.40;;;;;;5002250;28;20432;-55
2020/12/09 01:22:11;;;;;;;47.90;22.80;;;6.40;90.50;;;;;;5007526;28;20811;-57
2020/12/09 01:24:37;;;;;;;57.53;23.48;;;6.30;90.40;;;;;;5007779;28;20194;-55
2020/12/09 01:27:02;;;;;;;52.38;23.25;;;6.30;90.50;;;;;;5006138;28;20029;-57
2020/12/09 01:29:28;;;;;;;58.83;23.15;;;6.30;90.50;;;;;;5010265;28;20049;-56
2020/12/09 01:32:00;;;;;;;59.10;23.63;;;6.30;90.50;;;;;;5003641;28;20048;-56
2020/12/09 01:34:26;;;;;;;49.85;22.67;;;6.30;90.50;;;;;;4989835;28;20178;-56
2020/12/09 01:36:51;;;;;;;51.15;23.33;;;6.30;90.80;;;;;;4990717;28;20188;-55
2020/12/09 01:39:17;;;;;;;52.47;22.15;;;6.30;90.50;;;;;;5006613;28;20034;-56
2020/12/09 01:41:42;;;;;;;66.15;23.42;;;6.30;90.50;;;;;;5005123;28;20030;-56
2020/12/09 01:44:08;;;;;;;58.15;22.77;;;6.30;90.60;;;;;;5007143;28;20026;-56
2020/12/09 01:46:34;;;;;;;60.90;22.95;;;6.20;90.50;;;;;;5003826;28;20053;-56
2020/12/09 01:48:59;;;;;;;49.67;21.88;;;6.30;90.50;;;;;;5005496;28;20121;-56
2020/12/09 01:51:26;;;;;;;53.67;21.83;;;6.20;90.50;;;;;;5006929;28;20037;-55
2020/12/09 01:53:52;;;;;;;52.30;24.15;;;6.30;90.60;;;;;;5011945;28;20254;-56
2020/12/09 01:56:18;;;;;;;46.55;21.15;;;6.30;90.60;;;;;;5009137;28;20034;-56
2020/12/09 01:58:43;;;;;;;48.13;21.48;;;6.30;90.60;;;;;;5010766;28;20371;-56
2020/12/09 02:01:09;;;;;;;50.10;23.10;;;6.30;90.50;;;;;;5007493;28;20512;-56
2020/12/09 02:03:34;;;;;;;49.05;21.92;;;6.30;90.50;;;;;;5009175;28;20053;-55
2020/12/09 02:06:00;;;;;;;44.15;20.98;;;6.20;90.50;;;;;;5010404;28;20037;-56
2020/12/09 02:08:25;;;;;;;55.72;23.73;;;6.20;90.50;;;;;;5002207;28;20046;-56
2020/12/09 02:11:01;;;;;;;55.58;21.83;;;6.30;90.50;;;;;;5011963;28;20022;-56
2020/12/09 02:13:27;;;;;;;47.67;21.50;;;6.20;90.50;;;;;;4991648;28;20052;-56
2020/12/09 02:15:52;;;;;;;46.17;21.73;;;6.20;90.60;;;;;;5011374;28;20058;-56
2020/12/09 02:18:18;;;;;;;47.08;22.77;;;6.20;90.60;;;;;;5010037;28;20029;-55
2020/12/09 02:20:44;;;;;;;42.92;21.10;;;6.20;90.60;;;;;;5021027;28;20161;-56
2020/12/09 02:23:09;;;;;;;45.10;22.05;;;6.20;90.60;;;;;;5011728;28;20041;-55
2020/12/09 02:25:35;;;;;;;44.70;21.92;;;6.20;90.60;;;;;;5007974;28;20030;-56
2020/12/09 02:28:00;;;;;;;40.70;21.13;;;6.20;90.60;;;;;;5011952;28;20489;-56
2020/12/09 02:30:26;;;;;;;56.75;22.27;;;6.20;90.60;;;;;;5010573;28;20544;-55
2020/12/09 02:32:51;;;;;;;50.88;22.45;;;6.20;90.60;;;;;;5011596;28;20033;-56
2020/12/09 02:35:17;;;;;;;51.95;21.35;;;6.20;90.60;;;;;;5009545;28;20053;-55
2020/12/09 02:37:42;;;;;;;47.05;21.63;;;6.20;90.60;;;;;;5010127;28;20073;-56
2020/12/09 02:40:08;;;;;;;50.97;20.45;;;6.20;90.60;;;;;;4990704;28;20521;-55
2020/12/09 02:42:33;;;;;;;39.10;22.52;;;6.20;90.70;;;;;;5014370;28;20030;-56
2020/12/09 02:44:59;;;;;;;49.38;21.27;;;6.20;90.70;;;;;;5009382;28;20619;-55
2020/12/09 02:47:24;;;;;;;42.30;20.92;;;6.10;90.70;;;;;;5011649;28;20042;-56
2020/12/09 02:49:50;;;;;;;55.85;21.67;;;6.10;90.60;;;;;;5024602;28;20041;-57
2020/12/09 02:52:15;;;;;;;41.30;21.50;;;6.20;90.70;;;;;;5011228;28;20409;-55
2020/12/09 02:54:41;;;;;;;45.15;21.30;;;6.20;90.70;;;;;;5009390;28;20038;-56
2020/12/09 02:57:06;;;;;;;37.17;20.27;;;6.20;90.70;;;;;;5012574;28;20034;-56
2020/12/09 02:59:32;;;;;;;43.20;21.00;;;6.10;90.60;;;;;;5009467;28;20242;-55
2020/12/09 03:01:57;;;;;;;39.35;20.88;;;6.10;90.70;;;;;;5011292;28;20445;-56
2020/12/09 03:04:23;;;;;;;43.17;22.83;;;6.10;90.70;;;;;;5005260;28;20042;-55
2020/12/09 03:06:48;;;;;;;39.60;19.95;;;6.10;90.70;;;;;;5016305;28;20026;-55
2020/12/09 03:09:14;;;;;;;37.20;20.95;;;6.10;90.70;;;;;;5007840;28;20025;-56
2020/12/09 03:11:40;;;;;;;42.13;21.02;;;6.10;90.70;;;;;;5008630;28;20033;-56
2020/12/09 03:14:05;;;;;;;45.70;19.80;;;6.10;91.00;;;;;;5008460;28;20057;-56
2020/12/09 03:16:31;;;;;;;47.72;22.70;;;6.10;90.70;;;;;;5013950;28;20041;-56
2020/12/09 03:18:56;;;;;;;39.83;22.77;;;6.10;90.70;;;;;;5008251;28;20038;-56
2020/12/09 03:21:22;;;;;;;45.63;23.80;;;6.10;90.70;;;;;;5004947;28;20382;-55
2020/12/09 03:23:47;;;;;;;41.05;22.90;;;6.10;90.70;;;;;;5028758;28;20482;-55
2020/12/09 03:26:13;;;;;;;43.60;23.70;;;6.10;90.70;;;;;;5006798;28;20606;-56
2020/12/09 03:28:38;;;;;;;43.95;23.40;;;6.10;90.80;;;;;;5023374;28;20053;-56
2020/12/09 03:31:05;;;;;;;43.40;23.67;;;6.00;90.70;;;;;;5010119;28;20108;-56
2020/12/09 03:33:30;;;;;;;46.67;24.75;;;6.10;90.70;;;;;;5005042;28;20030;-56
2020/12/09 03:35:56;;;;;;;42.22;23.33;;;6.10;90.70;;;;;;5008783;28;20029;-57
2020/12/09 03:38:21;;;;;;;46.75;23.55;;;6.10;90.70;;;;;;5006938;28;20034;-57
2020/12/09 03:40:48;;;;;;;47.90;24.67;;;6.10;90.80;;;;;;5028888;28;20337;-56
2020/12/09 03:43:14;;;;;;;45.63;23.73;;;6.00;90.80;;;;;;5008527;28;20043;-56
2020/12/09 03:45:39;;;;;;;43.83;24.27;;;6.00;90.80;;;;;;4992759;28;20414;-56
2020/12/09 03:48:05;;;;;;;37.72;23.40;;;6.00;90.80;;;;;;5008550;28;20543;-56
2020/12/09 03:50:30;;;;;;;41.08;22.75;;;6.00;90.80;;;;;;5024344;28;20061;-56
2020/12/09 03:52:56;;;;;;;44.60;23.05;;;6.00;90.80;;;;;;5023006;28;20056;-55
2020/12/09 03:55:21;;;;;;;42.95;22.40;;;6.00;90.80;;;;;;5009441;28;20030;-55
2020/12/09 03:57:47;;;;;;;47.35;23.95;;;6.00;90.80;;;;;;5008565;28;20036;-57
2020/12/09 04:00:13;;;;;;;37.75;22.98;;;6.00;90.80;;;;;;5008539;28;20160;-55
2020/12/09 04:02:38;;;;;;;37.65;22.67;;;6.00;90.90;;;;;;5023774;28;20073;-56
2020/12/09 04:05:05;;;;;;;34.92;21.75;;;6.00;90.90;;;;;;5007409;28;20048;-55
2020/12/09 04:07:30;;;;;;;43.40;22.98;;;6.00;90.90;;;;;;5007522;28;20501;-56
2020/12/09 04:09:56;;;;;;;45.25;23.25;;;6.00;90.80;;;;;;5010026;28;20045;-56
2020/12/09 04:12:23;;;;;;;96.90;26.48;;;6.00;90.90;;;;;;5012342;28;20053;-56
2020/12/09 04:14:52;;;;;;;63.03;25.23;;;6.00;90.80;;;;;;5024523;28;20053;-55
2020/12/09 04:17:18;;;;;;;57.03;24.50;;;6.00;90.80;;;;;;5006669;28;20030;-55
2020/12/09 04:19:43;;;;;;;45.17;23.75;;;6.00;90.80;;;;;;5007989;28;20046;-56
2020/12/09 04:22:09;;;;;;;57.25;24.73;;;6.00;90.90;;;;;;5009144;28;20040;-56
2020/12/09 04:24:34;;;;;;;53.92;23.73;;;6.00;90.90;;;;;;5008156;28;20044;-56
2020/12/09 04:27:00;;;;;;;53.30;25.25;;;6.00;90.90;;;;;;5003099;28;20354;-56
2020/12/09 04:29:25;;;;;;;50.35;24.60;;;6.00;90.90;;;;;;4988928;28;20057;-56
2020/12/09 04:31:51;;;;;;;56.45;25.92;;;5.90;90.90;;;;;;5009954;28;20157;-56
2020/12/09 04:34:19;;;;;;;52.58;24.80;;;6.00;91.00;;;;;;5007586;28;20611;-56
2020/12/09 04:36:45;;;;;;;52.40;25.15;;;6.00;91.10;;;;;;5009051;28;20041;-57
2020/12/09 04:39:11;;;;;;;53.22;25.52;;;6.00;91.10;;;;;;5018161;28;20029;-56
2020/12/09 04:41:36;;;;;;;47.17;24.13;;;6.00;91.10;;;;;;5023666;28;20045;-55
2020/12/09 04:44:02;;;;;;;54.25;23.73;;;6.00;91.10;;;;;;5007309;28;20505;-56
2020/12/09 04:46:27;;;;;;;47.88;22.88;;;6.00;91.10;;;;;;5007540;28;20054;-56
2020/12/09 04:49:03;;;;;;;49.17;23.70;;;6.00;91.10;;;;;;4988228;28;20100;-56
2020/12/09 04:52:07;;;;;;;49.83;23.10;;;6.00;91.10;;;;;;5006780;28;20037;-56
2020/12/09 04:54:43;;;;;;;51.08;22.67;;;6.00;91.10;;;;;;5004115;28;20242;-57
2020/12/09 04:57:08;;;;;;;48.05;23.13;;;6.00;91.10;;;;;;5008322;28;20028;-56
2020/12/09 04:59:36;;;;;;;45.20;22.75;;;5.90;91.10;;;;;;5005177;28;20045;-56
2020/12/09 05:02:03;;;;;;;51.13;23.67;;;6.00;91.10;;;;;;5007881;28;20064;-56
2020/12/09 05:04:30;;;;;;;47.58;22.75;;;6.00;91.10;;;;;;5012468;28;20046;-56
2020/12/09 05:06:55;;;;;;;41.33;21.63;;;6.00;91.20;;;;;;4994576;28;20026;-55
2020/12/09 05:09:25;;;;;;;51.92;23.75;;;6.00;91.20;;;;;;5005306;28;20026;-56
2020/12/09 05:11:51;;;;;;;42.95;24.23;;;5.90;91.20;;;;;;4974022;28;20074;-55
2020/12/09 05:14:16;;;;;;;42.22;22.80;;;5.90;91.20;;;;;;5007319;28;20037;-56
2020/12/09 05:16:49;;;;;;;39.72;22.10;;;5.90;91.30;;;;;;4994508;28;20356;-56
2020/12/09 05:19:15;;;;;;;41.65;21.55;;;5.90;91.30;;;;;;4989885;28;20057;-56
2020/12/09 05:21:41;;;;;;;39.33;21.95;;;5.90;91.30;;;;;;5005092;28;20292;-57
2020/12/09 05:24:06;;;;;;;40.75;22.05;;;5.90;91.30;;;;;;5013114;28;20136;-56
2020/12/09 05:26:33;;;;;;;37.63;22.02;;;5.90;91.30;;;;;;5008905;28;20025;-56
2020/12/09 05:29:06;;;;;;;43.90;22.60;;;5.80;91.30;;;;;;5005868;28;20038;-56
2020/12/09 05:31:31;;;;;;;39.05;22.38;;;5.90;91.30;;;;;;5006049;28;20033;-55
2020/12/09 05:33:57;;;;;;;35.53;20.90;;;5.90;91.30;;;;;;4987516;28;20528;-55
2020/12/09 05:36:26;;;;;;;33.58;21.05;;;5.90;91.30;;;;;;5007048;28;20482;-56
2020/12/09 05:39:05;;;;;;;37.63;21.20;;;5.90;91.40;;;;;;5005650;28;20389;-55
2020/12/09 05:41:32;;;;;;;36.85;23.10;;;5.90;91.40;;;;;;5006598;28;20100;-57
2020/12/09 05:44:00;;;;;;;31.73;22.13;;;5.90;91.40;;;;;;5016798;28;20037;-55
2020/12/09 05:46:26;;;;;;;38.83;22.58;;;5.90;91.40;;;;;;5017159;28;20157;-57
2020/12/09 05:48:51;;;;;;;34.22;22.08;;;5.90;91.50;;;;;;5008609;28;20132;-55
2020/12/09 05:51:16;;;;;;;32.65;21.00;;;5.80;91.50;;;;;;5006619;28;20037;-55
2020/12/09 05:53:44;;;;;;;36.33;22.92;;;5.80;91.50;;;;;;5005345;28;20030;-56
2020/12/09 05:56:14;;;;;;;38.38;22.00;;;5.80;91.50;;;;;;5006426;28;20041;-56
2020/12/09 05:58:43;;;;;;;35.22;21.15;;;5.80;91.50;;;;;;5005887;28;20065;-55
2020/12/09 06:01:18;;;;;;;35.53;20.90;;;5.80;91.40;;;;;;4989156;28;20040;-55
2020/12/09 06:03:45;;;;;;;32.55;21.83;;;5.80;91.50;;;;;;5011258;28;20107;-56
2020/12/09 06:06:17;;;;;;;30.70;20.95;;;5.80;91.40;;;;;;5007813;28;20029;-56
2020/12/09 06:08:47;;;;;;;31.02;20.40;;;5.90;91.40;;;;;;5011316;28;20030;-55
2020/12/09 06:11:14;;;;;;;33.35;20.75;;;5.90;91.40;;;;;;5005913;28;20040;-56
2020/12/09 06:13:40;;;;;;;34.58;21.20;;;5.90;91.40;;;;;;5005315;28;20030;-56
2020/12/09 06:16:06;;;;;;;34.22;19.92;;;5.90;91.40;;;;;;4999510;28;20048;-55
2020/12/09 06:18:33;;;;;;;36.10;21.63;;;5.90;91.40;;;;;;5004458;28;20056;-55
2020/12/09 06:20:58;;;;;;;37.28;21.35;;;5.90;91.40;;;;;;5005640;28;20030;-55
2020/12/09 06:23:27;;;;;;;35.88;21.88;;;5.90;91.40;;;;;;4989543;28;20532;-55
2020/12/09 06:25:53;;;;;;;38.03;21.58;;;5.90;91.40;;;;;;4992876;28;20104;-55
2020/12/09 06:28:20;;;;;;;35.38;20.13;;;5.90;91.40;;;;;;4984890;28;20116;-55
2020/12/09 06:30:45;;;;;;;36.38;20.65;;;5.90;91.40;;;;;;4987490;28;20097;-55
2020/12/09 06:33:12;;;;;;;29.52;20.77;;;5.90;91.40;;;;;;5001578;28;20268;-55
2020/12/09 06:35:38;;;;;;;40.05;20.33;;;5.90;91.40;;;;;;4992864;28;20029;-56
2020/12/09 06:38:10;;;;;;;39.92;20.48;;;5.90;91.40;;;;;;5010612;28;20117;-56
2020/12/09 06:40:54;;;;;;;35.90;21.38;;;5.90;91.40;;;;;;5009777;28;20056;-55
2020/12/09 06:43:20;;;;;;;34.05;22.73;;;5.90;91.40;;;;;;5005776;28;20111;-56
2020/12/09 06:45:46;;;;;;;38.85;22.95;;;5.90;91.40;;;;;;5005627;28;20111;-55
2020/12/09 06:48:13;;;;;;;50.33;22.48;;;5.90;91.40;;;;;;5007146;28;20026;-56
2020/12/09 06:50:39;;;;;;;33.10;22.23;;;5.90;91.50;;;;;;5006865;28;20042;-55
2020/12/09 06:53:11;;;;;;;34.00;21.38;;;5.90;91.60;;;;;;5011888;28;20384;-56
2020/12/09 06:55:37;;;;;;;38.33;21.60;;;6.00;91.60;;;;;;5004598;28;20103;-56
2020/12/09 06:58:20;;;;;;;35.63;21.25;;;5.90;91.50;;;;;;5009617;28;20033;-56
2020/12/09 07:01:00;;;;;;;43.63;22.30;;;5.90;91.50;;;;;;5007482;28;20029;-56
2020/12/09 07:03:26;;;;;;;34.22;20.85;;;5.90;91.60;;;;;;5007914;28;20062;-55
2020/12/09 07:05:52;;;;;;;39.30;21.58;;;6.00;91.50;;;;;;5005512;28;20029;-56
2020/12/09 07:08:18;;;;;;;33.65;20.98;;;6.00;91.50;;;;;;5000464;28;20042;-55
2020/12/09 07:10:43;;;;;;;29.60;20.00;;;5.90;91.40;;;;;;5004981;28;20556;-56
2020/12/09 07:13:11;;;;;;;31.02;18.80;;;5.90;91.40;;;;;;5009297;28;20033;-55
2020/12/09 07:15:42;;;;;;;30.67;18.80;;;6.00;91.40;;;;;;5003455;28;20123;-55
2020/12/09 07:18:07;;;;;;;28.92;18.67;;;5.90;91.40;;;;;;4970259;28;20464;-55
2020/12/09 07:20:34;;;;;;;30.80;18.88;;;5.90;91.40;;;;;;5008771;28;20022;-56
2020/12/09 07:23:00;;;;;;;30.13;19.05;;;5.90;91.50;;;;;;4990346;28;20044;-56
2020/12/09 07:25:25;;;;;;;26.38;17.92;;;5.90;91.50;;;;;;5002146;28;20132;-57
2020/12/09 07:27:51;;;;;;;27.27;18.27;;;5.90;91.40;;;;;;5005108;28;20030;-56
2020/12/09 07:30:18;;;;;;;31.75;18.08;;;5.90;91.40;;;;;;5006228;28;20022;-56
2020/12/09 07:32:44;;;;;;;32.65;18.10;;;5.90;91.70;;;;;;5004751;28;20818;-57
2020/12/09 07:35:10;;;;;;;36.38;17.80;;;5.90;91.50;;;;;;5004990;28;20034;-56
2020/12/09 07:37:41;;;;;;;46.33;18.33;;;5.90;91.50;;;;;;5007801;28;20033;-56
2020/12/09 07:40:10;;;;;;;37.40;17.33;;;5.90;91.50;;;;;;5024360;28;20099;-57
2020/12/09 07:42:36;;;;;;;42.35;17.05;;;5.90;91.60;;;;;;4999567;28;20045;-56
2020/12/09 07:45:02;;;;;;;36.05;15.70;;;6.00;91.60;;;;;;5004799;28;20022;-56
2020/12/09 07:47:28;;;;;;;26.40;15.77;;;6.00;91.50;;;;;;5010884;28;20025;-57
2020/12/09 07:49:55;;;;;;;31.30;15.48;;;6.00;91.50;;;;;;5030188;28;20037;-55
2020/12/09 07:52:27;;;;;;;27.60;15.85;;;6.00;91.50;;;;;;5009754;28;20062;-56
2020/12/09 07:54:54;;;;;;;31.05;15.65;;;5.90;91.50;;;;;;5020477;28;20030;-56
2020/12/09 07:57:21;;;;;;;30.02;15.60;;;5.90;91.50;;;;;;5007104;28;20126;-56
2020/12/09 07:59:46;;;;;;;25.42;15.50;;;5.90;91.50;;;;;;4986921;28;20743;-57
2020/12/09 08:02:19;;;;;;;27.67;14.95;;;5.90;91.50;;;;;;5006601;28;20054;-56
2020/12/09 08:04:45;;;;;;;21.00;14.38;;;6.00;91.50;;;;;;5012822;28;20108;-56
2020/12/09 08:07:20;;;;;;;23.60;14.57;;;5.90;91.50;;;;;;5006152;28;20247;-56
2020/12/09 08:10:08;;;;;;;24.33;14.70;;;6.00;91.50;;;;;;4991013;28;20045;-57
2020/12/09 08:12:35;;;;;;;23.48;14.35;;;5.90;91.50;;;;;;5015526;28;20034;-55
2020/12/09 08:15:01;;;;;;;25.23;14.15;;;5.90;91.60;;;;;;5027894;28;20041;-57
2020/12/09 08:17:29;;;;;;;26.38;13.98;;;6.00;91.60;;;;;;5021267;28;20045;-56
2020/12/09 08:20:08;;;;;;;24.63;13.63;;;6.00;91.60;;;;;;5005977;28;20083;-56
2020/12/09 08:22:52;;;;;;;24.30;13.05;;;6.00;91.60;;;;;;5021745;28;20362;-56
2020/12/09 08:25:18;;;;;;;27.23;14.48;;;6.10;91.60;;;;;;5008186;28;20557;-56
2020/12/09 08:27:44;;;;;;;27.27;13.07;;;6.00;91.60;;;;;;5001810;28;20042;-56
2020/12/09 08:30:11;;;;;;;22.45;13.45;;;6.00;91.60;;;;;;4998855;28;20025;-56
2020/12/09 08:33:05;;;;;;;25.30;13.05;;;6.00;91.60;;;;;;5004283;28;20062;-55
2020/12/09 08:35:44;;;;;;;25.05;13.02;;;6.00;91.60;;;;;;5000140;28;20026;-56
2020/12/09 08:38:10;;;;;;;30.50;13.88;;;6.00;91.60;;;;;;5005060;28;20739;-56
2020/12/09 08:40:36;;;;;;;41.80;15.60;;;6.00;91.70;;;;;;5001485;28;20156;-55
2020/12/09 08:43:01;;;;;;;46.65;14.68;;;6.00;91.90;;;;;;5003605;28;20545;-56
2020/12/09 08:45:27;;;;;;;36.85;14.50;;;6.00;91.80;;;;;;5005035;28;20587;-56
2020/12/09 08:47:53;;;;;;;33.15;13.75;;;6.00;91.90;;;;;;5004525;28;20041;-55
2020/12/09 08:50:18;;;;;;;38.45;13.68;;;6.00;91.80;;;;;;5001125;28;20034;-57
2020/12/09 08:52:44;;;;;;;38.67;14.90;;;6.00;91.80;;;;;;4986198;28;20026;-56
2020/12/09 08:55:10;;;;;;;60.45;14.82;;;6.00;91.90;;;;;;5008873;28;20041;-55
2020/12/09 08:57:35;;;;;;;36.42;13.70;;;6.10;91.80;;;;;;5005597;28;20044;-57
2020/12/09 09:00:01;;;;;;;78.35;16.65;;;6.10;91.80;;;;;;5005510;28;20030;-57
2020/12/09 09:02:26;;;;;;;64.90;16.30;;;6.10;91.90;;;;;;5002243;28;20037;-55
2020/12/09 09:04:52;;;;;;;61.08;15.75;;;6.10;92.00;;;;;;5003520;28;20026;-56
2020/12/09 09:07:17;;;;;;;53.85;15.02;;;6.10;92.00;;;;;;5002353;28;20370;-56
2020/12/09 09:09:43;;;;;;;67.47;15.38;;;6.10;92.00;;;;;;4998984;28;20057;-56
2020/12/09 09:12:09;;;;;;;54.22;14.48;;;6.10;91.90;;;;;;5002946;28;20021;-55
2020/12/09 09:14:35;;;;;;;71.47;15.18;;;6.10;91.80;;;;;;5007369;28;20025;-56
2020/12/09 09:17:00;;;;;;;98.93;18.88;;;6.20;91.90;;;;;;5004989;28;20508;-56
2020/12/09 09:19:26;;;;;;;58.50;17.05;;;6.20;92.20;;;;;;5000356;28;20044;-56
2020/12/09 09:21:52;;;;;;;70.28;16.58;;;6.20;92.30;;;;;;5003566;28;20489;-54
2020/12/09 09:24:17;;;;;;;80.00;18.35;;;6.20;92.30;;;;;;5003516;28;20029;-55
2020/12/09 09:26:43;;;;;;;75.75;17.38;;;6.20;92.20;;;;;;5007218;28;20616;-56
2020/12/09 09:29:08;;;;;;;101.03;18.67;;;6.20;92.30;;;;;;5002163;28;20517;-56
2020/12/09 09:31:34;;;;;;;93.28;18.17;;;6.30;92.40;;;;;;5001901;28;20094;-56
2020/12/09 09:33:59;;;;;;;91.10;18.48;;;6.30;92.30;;;;;;4999557;28;20069;-57
2020/12/09 09:36:29;;;;;;;105.82;19.23;;;6.30;92.30;;;;;;5003851;28;20177;-55
2020/12/09 09:38:54;;;;;;;94.10;17.30;;;6.30;92.40;;;;;;5006389;28;20520;-58
2020/12/09 09:41:20;;;;;;;83.65;19.10;;;6.40;92.30;;;;;;5004148;28;20034;-56
2020/12/09 09:43:45;;;;;;;129.95;23.98;;;6.40;92.40;;;;;;5000189;28;20029;-56
2020/12/09 09:46:11;;;;;;;97.20;19.25;;;6.50;92.60;;;;;;5001005;28;20034;-56
2020/12/09 09:48:36;;;;;;;108.78;19.73;;;6.50;92.40;;;;;;5004091;28;20042;-57
2020/12/09 09:51:02;;;;;;;109.05;19.23;;;6.50;92.30;;;;;;5008681;28;20989;-56
2020/12/09 09:53:27;;;;;;;133.95;20.60;;;6.50;92.60;;;;;;5003061;28;20124;-56
2020/12/09 09:55:53;;;;;;;126.32;21.02;;;6.50;92.70;;;;;;5018187;28;20042;-57
2020/12/09 09:58:18;;;;;;;137.48;19.65;;;6.50;92.60;;;;;;5004667;28;20056;-57
2020/12/09 10:00:44;;;;;;;150.15;21.67;;;6.50;92.50;;;;;;5010509;28;20046;-56
2020/12/09 10:03:09;;;;;;;133.20;22.90;;;6.60;92.50;;;;;;4985469;28;20057;-56
2020/12/09 10:05:35;;;;;;;152.00;23.60;;;6.60;92.50;;;;;;5004424;28;20064;-56
2020/12/09 10:08:00;;;;;;;163.40;24.25;;;6.60;92.60;;;;;;5003998;28;20113;-56
2020/12/09 10:10:26;;;;;;;127.50;20.23;;;6.60;92.60;;;;;;4998609;28;20034;-55
2020/12/09 10:12:51;;;;;;;115.88;21.58;;;6.60;92.60;;;;;;5015798;28;20026;-56
2020/12/09 10:15:17;;;;;;;118.97;19.60;;;6.60;92.50;;;;;;4998259;28;20421;-56
2020/12/09 10:17:42;;;;;;;119.38;20.00;;;6.60;92.40;;;;;;4995744;28;20061;-57
2020/12/09 10:20:08;;;;;;;104.60;19.63;;;6.60;92.30;;;;;;5002872;28;20041;-56
2020/12/09 10:22:34;;;;;;;125.13;19.50;;;6.60;92.50;;;;;;5002047;28;20045;-56
2020/12/09 10:24:59;;;;;;;119.03;21.23;;;6.50;92.60;;;;;;4997952;28;20028;-56
2020/12/09 10:27:25;;;;;;;93.60;19.23;;;6.50;92.60;;;;;;4998683;28;20579;-57
2020/12/09 10:29:50;;;;;;;96.88;18.35;;;6.50;92.60;;;;;;5017087;28;20121;-56
2020/12/09 10:32:16;;;;;;;87.13;18.48;;;6.50;92.90;;;;;;5001720;28;20497;-56
2020/12/09 10:34:41;;;;;;;87.88;16.48;;;6.60;92.80;;;;;;5019013;28;20125;-57
2020/12/09 10:37:07;;;;;;;77.03;15.73;;;6.60;92.40;;;;;;5019774;28;20117;-56
2020/12/09 10:39:32;;;;;;;107.97;18.48;;;6.60;92.40;;;;;;5004857;28;20080;-56
2020/12/09 10:41:58;;;;;;;81.32;18.10;;;6.60;92.40;;;;;;5004521;28;20087;-56
2020/12/09 10:44:23;;;;;;;93.28;17.65;;;6.60;92.60;;;;;;5008033;28;20072;-57
2020/12/09 10:46:49;;;;;;;96.65;17.40;;;6.60;92.70;;;;;;5004666;28;20176;-56
2020/12/09 10:49:15;;;;;;;80.72;15.85;;;6.60;92.80;;;;;;5005029;28;20113;-56
2020/12/09 10:51:48;;;;;;;101.35;18.05;;;6.60;92.60;;;;;;5020655;28;20030;-56
2020/12/09 10:54:14;;;;;;;73.25;15.30;;;6.60;92.70;;;;;;4998077;28;20486;-57
2020/12/09 10:56:40;;;;;;;70.20;15.40;;;6.60;92.80;;;;;;4986735;28;20033;-56
2020/12/09 10:59:05;;;;;;;73.05;15.02;;;6.60;92.70;;;;;;5007478;28;20034;-56
2020/12/09 11:01:32;;;;;;;63.22;13.60;;;6.60;92.50;;;;;;5006144;28;20041;-56
2020/12/09 11:03:57;;;;;;;63.05;14.48;;;6.60;92.40;;;;;;4983537;28;20044;-56
2020/12/09 11:06:27;;;;;;;56.53;12.80;;;6.60;92.30;;;;;;4996727;28;20033;-56
2020/12/09 11:08:52;;;;;;;53.72;14.13;;;6.60;92.30;;;;;;5018589;28;20477;-56
2020/12/09 11:11:18;;;;;;;64.47;14.93;;;6.60;92.30;;;;;;5005612;28;20034;-56
2020/12/09 11:13:43;;;;;;;51.95;12.75;;;6.70;92.20;;;;;;5003941;28;20053;-57
2020/12/09 11:16:14;;;;;;;75.45;12.82;;;6.60;92.10;;;;;;4990824;28;20034;-56
2020/12/09 11:18:40;;;;;;;64.55;14.55;;;6.60;92.00;;;;;;5000738;28;20030;-57
2020/12/09 11:21:06;;;;;;;68.63;14.88;;;6.60;92.00;;;;;;5003794;28;20100;-56
2020/12/09 11:23:31;;;;;;;52.28;12.63;;;6.60;92.20;;;;;;5006518;28;20037;-56
2020/12/09 11:25:57;;;;;;;70.45;13.68;;;6.70;92.20;;;;;;4998280;28;20045;-56
2020/12/09 11:28:22;;;;;;;50.92;12.68;;;6.60;92.00;;;;;;5005356;28;20030;-56
2020/12/09 11:30:48;;;;;;;76.72;14.52;;;6.60;91.90;;;;;;5020015;28;20053;-56
2020/12/09 11:33:13;;;;;;;56.33;13.68;;;6.60;92.20;;;;;;5018201;28;20481;-56
2020/12/09 11:35:39;;;;;;;85.28;14.65;;;6.60;92.40;;;;;;5019299;28;20033;-56
2020/12/09 11:38:04;;;;;;;80.05;14.52;;;6.60;92.40;;;;;;5005751;28;20029;-57
2020/12/09 11:40:30;;;;;;;56.40;12.82;;;6.60;92.30;;;;;;5003614;28;20030;-56
2020/12/09 11:42:55;;;;;;;59.08;12.63;;;6.60;92.20;;;;;;5003099;28;20026;-56
2020/12/09 11:45:21;;;;;;;56.63;12.52;;;6.60;92.00;;;;;;4993483;28;20053;-57
2020/12/09 11:47:46;;;;;;;49.35;12.07;;;6.60;92.00;;;;;;5015443;28;20077;-57
2020/12/09 11:50:12;;;;;;;54.53;12.05;;;6.60;92.00;;;;;;5005585;28;20038;-56
2020/12/09 11:52:37;;;;;;;37.40;11.00;;;6.60;92.20;;;;;;5008167;28;20121;-57
2020/12/09 11:55:03;;;;;;;51.92;10.98;;;6.60;92.00;;;;;;5016737;28;20030;-56
2020/12/09 11:57:30;;;;;;;68.38;13.20;;;6.60;91.90;;;;;;5000128;28;20553;-55
2020/12/09 11:59:55;;;;;;;58.35;11.18;;;6.60;91.90;;;;;;5003118;28;20144;-56
2020/12/09 12:02:21;;;;;;;55.80;10.63;;;6.60;91.90;;;;;;5004929;28;20484;-57
2020/12/09 12:04:49;;;;;;;56.08;11.85;;;6.50;91.90;;;;;;5004353;28;20088;-56
2020/12/09 12:07:14;;;;;;;47.83;10.32;;;6.60;91.90;;;;;;5001155;28;20022;-56
2020/12/09 12:09:40;;;;;;;76.80;12.60;;;6.50;91.80;;;;;;5004100;28;20504;-57
2020/12/09 12:12:05;;;;;;;66.22;11.65;;;6.60;91.90;;;;;;4995922;28;20060;-57
2020/12/09 12:14:31;;;;;;;52.50;10.60;;;6.60;91.90;;;;;;5002507;28;20126;-57
2020/12/09 12:16:56;;;;;;;46.90;10.75;;;6.60;92.00;;;;;;5001253;28;20616;-57
2020/12/09 12:19:22;;;;;;;42.20;10.70;;;6.50;92.00;;;;;;5007749;28;20038;-59
2020/12/09 12:21:48;;;;;;;53.22;11.73;;;6.50;91.90;;;;;;5002555;28;20033;-58
2020/12/09 12:24:14;;;;;;;55.28;11.55;;;6.60;91.90;;;;;;5000759;28;20026;-58
2020/12/09 12:26:40;;;;;;;46.17;11.68;;;6.50;91.80;;;;;;5000064;28;20089;-58
2020/12/09 12:29:05;;;;;;;44.70;9.80;;;6.50;92.10;;;;;;5005440;28;20493;-58
2020/12/09 12:31:31;;;;;;;67.28;10.82;;;6.50;91.80;;;;;;5004612;28;20112;-57
2020/12/09 12:33:56;;;;;;;54.38;10.60;;;6.50;91.80;;;;;;5019250;28;20032;-57